Time;durP1;ratioP1;P1;durP2;ratioP2;P2;SDS_P1;SDS_P2;PMS_P1;PMS_P2;Temp;Humidity;BMP_temperature;BMP_pressure;BME280_temperature;BME280_humidity;BME280_pressure;Samples;Min_cycle;Max_cycle;Signal;HPM_P1;HPM_P2
2023/09/11 00:01:23;;;;;;;13.70;9.30;;;;;;;23.31;82.96;101245.84;5053071;28;20428;-64
2023/09/11 00:03:49;;;;;;;15.90;10.18;;;;;;;23.17;83.37;101235.66;5061598;28;20024;-64
2023/09/11 00:06:15;;;;;;;10.68;9.43;;;;;;;23.15;83.76;101237.72;5052849;28;20107;-65
2023/09/11 00:08:40;;;;;;;21.00;10.70;;;;;;;23.19;83.51;101235.50;5064450;28;20166;-64
2023/09/11 00:11:06;;;;;;;16.40;10.73;;;;;;;23.09;83.87;101227.53;5047915;28;20033;-64
2023/09/11 00:13:34;;;;;;;18.23;11.10;;;;;;;23.02;84.34;101235.50;5060827;28;20020;-64
2023/09/11 00:15:59;;;;;;;15.75;9.55;;;;;;;23.14;83.22;101233.28;5051582;28;20025;-64
2023/09/11 00:18:25;;;;;;;13.75;10.23;;;;;;;22.95;84.22;101222.78;5056237;28;20222;-64
2023/09/11 00:20:53;;;;;;;19.73;11.55;;;;;;;23.08;82.81;101218.53;5051404;28;20036;-64
2023/09/11 00:23:18;;;;;;;12.77;10.85;;;;;;;23.02;83.89;101221.06;5052378;28;20377;-64
2023/09/11 00:25:44;;;;;;;16.48;11.55;;;;;;;23.16;82.67;101220.41;5068518;28;20024;-64
2023/09/11 00:28:09;;;;;;;17.30;10.80;;;;;;;23.01;84.21;101227.53;5068364;28;20032;-64
2023/09/11 00:30:36;;;;;;;15.65;11.32;;;;;;;22.94;84.49;101223.75;5058237;28;20100;-64
2023/09/11 00:33:02;;;;;;;21.48;10.95;;;;;;;23.03;83.44;101215.50;5095320;28;20387;-64
2023/09/11 00:35:30;;;;;;;19.83;11.52;;;;;;;22.95;84.47;101226.34;5038080;28;20036;-64
2023/09/11 00:37:55;;;;;;;14.88;10.98;;;;;;;22.94;84.36;101216.44;5071106;28;20432;-64
2023/09/11 00:40:20;;;;;;;14.10;11.27;;;;;;;23.05;83.87;101221.56;5074180;28;20075;-64
2023/09/11 00:42:48;;;;;;;22.95;12.18;;;;;;;22.87;84.78;101213.56;5052265;28;20021;-64
2023/09/11 00:45:16;;;;;;;19.00;11.75;;;;;;;22.84;85.21;101213.06;5072911;28;20016;-64
2023/09/11 00:47:44;;;;;;;18.40;11.88;;;;;;;22.87;84.45;101213.56;5058970;28;20036;-64
2023/09/11 00:50:11;;;;;;;14.88;11.02;;;;;;;22.78;85.41;101216.44;5075258;28;20499;-64
2023/09/11 00:52:37;;;;;;;15.98;11.30;;;;;;;22.86;85.42;101217.31;5078944;28;20104;-64
2023/09/11 00:55:05;;;;;;;14.00;11.50;;;;;;;22.86;85.18;101219.19;5083662;28;20023;-64
2023/09/11 00:57:31;;;;;;;17.63;11.63;;;;;;;22.77;85.39;101214.78;5060033;28;20048;-64
2023/09/11 00:59:56;;;;;;;16.83;11.60;;;;;;;22.82;84.91;101205.09;5054105;28;20548;-64
2023/09/11 01:02:22;;;;;;;17.42;11.15;;;;;;;22.83;85.21;101220.34;5076751;28;20033;-64
2023/09/11 01:04:48;;;;;;;19.25;11.68;;;;;;;22.71;85.56;101215.41;5075083;28;20040;-64
2023/09/11 01:07:14;;;;;;;17.30;11.50;;;;;;;22.78;85.45;101221.88;5085114;28;20454;-64
2023/09/11 01:09:41;;;;;;;13.68;11.90;;;;;;;22.80;84.88;101212.56;5070237;28;20494;-64
2023/09/11 01:12:07;;;;;;;17.63;11.70;;;;;;;22.78;85.20;101213.75;5078032;28;20048;-64
2023/09/11 01:14:33;;;;;;;15.77;11.93;;;;;;;22.81;84.37;101205.25;5076490;28;20483;-64
2023/09/11 01:17:21;;;;;;;16.10;12.00;;;;;;;22.67;85.60;101214.91;5083670;28;20035;-64
2023/09/11 01:20:19;;;;;;;17.67;11.25;;;;;;;22.72;84.99;101209.84;5059165;28;20027;-64
2023/09/11 01:22:56;;;;;;;13.15;11.02;;;;;;;22.63;85.43;101206.25;5092489;28;20029;-64
2023/09/11 01:25:59;;;;;;;19.67;11.73;;;;;;;22.64;85.84;101209.81;5090328;28;20095;-64
2023/09/11 01:28:54;;;;;;;17.55;10.85;;;;;;;22.54;85.84;101211.84;5056019;28;20028;-64
2023/09/11 01:31:20;;;;;;;21.17;12.23;;;;;;;22.48;85.87;101209.78;5060981;28;20081;-64
2023/09/11 01:33:52;;;;;;;16.30;11.45;;;;;;;22.56;84.58;101212.50;5090351;28;20036;-64
2023/09/11 01:36:17;;;;;;;16.73;11.32;;;;;;;22.34;86.61;101209.41;5086929;28;20025;-64
2023/09/11 01:38:43;;;;;;;16.60;11.55;;;;;;;22.37;86.43;101209.06;5073416;28;20085;-64
2023/09/11 01:41:09;;;;;;;15.82;11.38;;;;;;;22.35;86.32;101202.13;5059418;28;20035;-64
2023/09/11 01:43:39;;;;;;;19.15;10.35;;;;;;;22.39;86.04;101201.63;5090437;28;20036;-64
2023/09/11 01:46:05;;;;;;;16.98;10.65;;;;;;;22.23;86.59;101201.56;5080169;28;20039;-64
2023/09/11 01:48:33;;;;;;;16.30;11.10;;;;;;;22.19;86.42;101197.50;5067919;28;20030;-64
2023/09/11 01:50:59;;;;;;;18.67;10.73;;;;;;;22.25;86.17;101199.56;5054047;28;20027;-64
2023/09/11 01:53:25;;;;;;;17.15;10.55;;;;;;;22.21;86.64;101204.47;5075619;28;20418;-64
2023/09/11 01:55:55;;;;;;;12.85;10.32;;;;;;;22.21;86.14;101199.03;5065841;28;20454;-64
2023/09/11 01:58:21;;;;;;;15.07;10.48;;;;;;;22.33;85.11;101193.31;5057955;28;20024;-64
2023/09/11 02:00:46;;;;;;;13.80;10.50;;;;;;;;;;5053492;28;20021;-64
2023/09/11 02:03:12;;;;;;;13.15;9.55;;;;;;;22.09;86.52;101192.19;5056977;28;20063;-64
2023/09/11 02:05:37;;;;;;;11.38;10.05;;;;;;;22.06;86.71;101188.94;5056054;28;20033;-64
2023/09/11 02:08:03;;;;;;;13.25;10.23;;;;;;;21.98;86.96;101195.19;5059169;28;20056;-64
2023/09/11 02:10:28;;;;;;;16.85;10.48;;;;;;;22.07;86.43;101180.66;5055243;28;20024;-64
2023/09/11 02:12:53;;;;;;;14.93;10.18;;;;;;;22.03;86.75;101191.97;5058317;28;20051;-64
2023/09/11 02:15:19;;;;;;;13.23;9.75;;;;;;;21.99;86.81;101191.47;5061967;28;20505;-64
2023/09/11 02:17:44;;;;;;;13.77;10.48;;;;;;;22.07;86.19;101186.09;5069434;28;20036;-64
2023/09/11 02:20:12;;;;;;;14.60;10.75;;;;;;;22.02;86.58;101180.31;5073192;28;20017;-64
2023/09/11 02:22:37;;;;;;;15.07;11.52;;;;;;;21.89;87.22;101180.75;5058800;28;20027;-64
2023/09/11 02:25:03;;;;;;;16.02;10.40;;;;;;;21.96;86.78;101179.09;5076613;28;20056;-64
2023/09/11 02:27:28;;;;;;;13.52;10.25;;;;;;;21.89;86.88;101179.94;5085216;28;20024;-64
2023/09/11 02:29:54;;;;;;;17.75;11.10;;;;;;;21.83;86.80;101178.72;5053750;28;20029;-64
2023/09/11 02:32:19;;;;;;;13.90;10.63;;;;;;;21.87;87.01;101171.09;5059794;28;20036;-64
2023/09/11 02:34:45;;;;;;;13.23;10.68;;;;;;;21.77;87.34;101161.25;5072518;28;20024;-64
2023/09/11 02:37:10;;;;;;;15.07;10.73;;;;;;;21.82;87.26;101168.88;5075901;28;20055;-64
2023/09/11 02:39:36;;;;;;;18.25;11.55;;;;;;;21.76;87.33;101181.19;5085896;28;20035;-64
2023/09/11 02:42:01;;;;;;;15.45;11.52;;;;;;;21.70;87.93;101178.28;5073921;28;20036;-64
2023/09/11 02:44:29;;;;;;;15.15;10.75;;;;;;;21.66;87.82;101166.09;5070806;28;20077;-64
2023/09/11 02:46:55;;;;;;;17.55;11.38;;;;;;;21.76;87.56;101174.94;5073893;28;20036;-64
2023/09/11 02:49:22;;;;;;;18.23;12.10;;;;;;;21.66;88.11;101164.22;5069083;28;20062;-64
2023/09/11 02:51:47;;;;;;;13.68;10.73;;;;;;;21.66;87.69;101175.06;5077535;28;20028;-64
2023/09/11 02:54:13;;;;;;;15.55;11.20;;;;;;;21.74;87.51;101174.28;5075685;28;20031;-64
2023/09/11 02:56:41;;;;;;;18.00;11.75;;;;;;;21.52;88.99;101170.25;5072569;28;20036;-64
2023/09/11 02:59:07;;;;;;;14.95;11.02;;;;;;;21.52;88.88;101172.94;5072596;28;20017;-64
2023/09/11 03:01:32;;;;;;;11.93;10.55;;;;;;;21.48;88.82;101172.44;5072029;28;20016;-64
2023/09/11 03:03:58;;;;;;;13.15;10.93;;;;;;;21.57;88.49;101167.91;5064484;28;20024;-64
2023/09/11 03:06:23;;;;;;;14.65;10.98;;;;;;;21.57;88.07;101164.38;5070095;28;20051;-64
2023/09/11 03:08:49;;;;;;;14.32;10.60;;;;;;;21.55;88.04;101165.34;5074343;28;20017;-64
2023/09/11 03:11:14;;;;;;;16.38;10.95;;;;;;;21.42;88.67;101161.41;5070971;28;20403;-64
2023/09/11 03:13:40;;;;;;;13.43;10.48;;;;;;;21.45;88.42;101151.09;5071984;28;20409;-64
2023/09/11 03:16:13;;;;;;;15.63;11.13;;;;;;;21.41;88.82;101149.69;5082840;28;20036;-64
2023/09/11 03:18:39;;;;;;;13.68;11.38;;;;;;;21.28;89.04;101157.38;5054921;28;20479;-64
2023/09/11 03:21:07;;;;;;;13.27;11.05;;;;;;;21.16;89.73;101147.84;5079650;28;20035;-64
2023/09/11 03:23:34;;;;;;;19.88;10.90;;;;;;;21.22;90.08;101142.63;5080863;28;20051;-64
2023/09/11 03:25:59;;;;;;;18.77;11.25;;;;;;;21.15;89.73;101141.59;5059798;28;20058;-64
2023/09/11 03:28:29;;;;;;;18.20;11.50;;;;;;;21.18;89.81;101143.09;5074772;28;20062;-64
2023/09/11 03:30:55;;;;;;;15.48;11.25;;;;;;;21.02;90.62;101141.13;5080408;28;20572;-64
2023/09/11 03:33:21;;;;;;;14.50;10.70;;;;;;;21.11;90.53;101142.88;5071860;28;20036;-64
2023/09/11 03:35:46;;;;;;;14.05;11.10;;;;;;;21.12;90.05;101144.59;5071094;28;20048;-64
2023/09/11 03:38:13;;;;;;;14.23;11.05;;;;;;;21.14;90.54;101130.91;5071656;28;20107;-64
2023/09/11 03:40:39;;;;;;;16.48;10.73;;;;;;;21.13;90.00;101130.06;5068076;28;20455;-64
2023/09/11 03:43:04;;;;;;;14.05;10.93;;;;;;;21.05;90.02;101120.03;5068927;28;20134;-64
2023/09/11 03:45:30;;;;;;;12.95;10.93;;;;;;;21.13;89.57;101138.19;5085429;28;20020;-64
2023/09/11 03:47:55;;;;;;;19.88;10.88;;;;;;;21.16;88.79;101143.28;5089767;28;20028;-64
2023/09/11 03:50:20;;;;;;;13.68;10.05;;;;;;;21.07;88.68;101125.28;5077824;28;20095;-64
2023/09/11 03:52:46;;;;;;;15.80;10.85;;;;;;;21.03;88.84;101122.06;5086203;28;20030;-64
2023/09/11 03:55:11;;;;;;;14.15;10.57;;;;;;;21.07;88.87;101128.84;5079141;28;20023;-64
2023/09/11 03:57:37;;;;;;;20.10;11.60;;;;;;;21.14;87.91;101117.38;5078562;28;20450;-64
2023/09/11 04:00:07;;;;;;;16.02;11.10;;;;;;;21.26;87.14;101116.09;5075517;28;20474;-64
2023/09/11 04:02:33;;;;;;;15.93;10.35;;;;;;;21.19;87.80;101118.59;5071433;28;20024;-64
2023/09/11 04:04:58;;;;;;;14.93;10.52;;;;;;;21.18;87.33;101102.50;5075700;28;20023;-64
2023/09/11 04:07:24;;;;;;;13.73;11.05;;;;;;;21.19;87.21;101101.53;5071672;28;20052;-64
2023/09/11 04:09:49;;;;;;;15.38;11.27;;;;;;;21.15;87.53;101103.72;5079825;28;20025;-64
2023/09/11 04:12:16;;;;;;;15.55;10.90;;;;;;;21.14;87.27;101111.97;5072160;28;20032;-64
2023/09/11 04:14:42;;;;;;;16.58;10.70;;;;;;;21.06;88.02;101110.91;5079214;28;20025;-64
2023/09/11 04:17:10;;;;;;;15.18;11.35;;;;;;;21.13;87.38;101099.47;5049590;28;20391;-64
2023/09/11 04:19:37;;;;;;;14.73;11.48;;;;;;;21.04;88.00;101099.41;5038130;28;20035;-64
2023/09/11 04:22:04;;;;;;;15.73;11.10;;;;;;;21.19;87.07;101099.66;5051017;28;20491;-64
2023/09/11 04:24:30;;;;;;;19.77;11.13;;;;;;;20.96;87.96;101104.75;5075598;28;20028;-64
2023/09/11 04:26:55;;;;;;;19.15;11.68;;;;;;;21.10;86.43;101096.06;5075422;28;20031;-64
2023/09/11 04:29:21;;;;;;;18.48;11.52;;;;;;;21.09;88.01;101088.97;5074120;28;20159;-64
2023/09/11 04:31:48;;;;;;;17.15;10.90;;;;;;;21.02;87.72;101089.75;5064442;28;20079;-64
2023/09/11 04:34:14;;;;;;;14.43;11.35;;;;;;;21.06;87.93;101083.88;5052683;28;20024;-64
2023/09/11 04:36:39;;;;;;;19.65;10.25;;;;;;;21.05;87.53;101090.28;5066696;28;20029;-64
2023/09/11 04:39:05;;;;;;;13.38;10.82;;;;;;;20.94;88.22;101081.56;5070690;28;20053;-64
2023/09/11 04:41:30;;;;;;;16.63;10.95;;;;;;;20.95;87.52;101094.94;5076445;28;20379;-64
2023/09/11 04:43:57;;;;;;;17.08;11.13;;;;;;;21.04;86.71;101094.00;5085336;28;20024;-64
2023/09/11 04:46:23;;;;;;;14.32;11.55;;;;;;;20.99;86.44;101099.03;5064314;28;20062;-64
2023/09/11 04:48:49;;;;;;;17.98;11.02;;;;;;;20.91;86.73;101096.25;5070347;28;20484;-64
2023/09/11 04:51:14;;;;;;;20.20;11.55;;;;;;;20.98;86.04;101107.31;5062317;28;20032;-64
2023/09/11 04:53:39;;;;;;;16.45;11.13;;;;;;;20.94;86.31;101101.38;5072473;28;20021;-64
2023/09/11 04:56:05;;;;;;;17.58;11.45;;;;;;;20.77;87.26;101089.59;5054216;28;20390;-64
2023/09/11 04:58:30;;;;;;;19.75;11.43;;;;;;;20.96;85.58;101101.19;5069840;28;20021;-64
2023/09/11 05:00:56;;;;;;;15.57;10.95;;;;;;;20.85;87.29;101100.47;5063334;28;20063;-64
2023/09/11 05:03:21;;;;;;;14.88;11.10;;;;;;;20.91;85.99;101101.66;5056254;28;20466;-64
2023/09/11 05:05:50;;;;;;;20.73;11.15;;;;;;;20.88;85.52;101104.69;5052823;28;20406;-64
2023/09/11 05:08:15;;;;;;;16.98;11.75;;;;;;;20.89;86.03;101105.56;5079706;28;20012;-64
2023/09/11 05:10:42;;;;;;;17.13;11.90;;;;;;;20.92;85.26;101106.09;5069919;28;20101;-64
2023/09/11 05:13:08;;;;;;;18.55;11.45;;;;;;;20.86;85.23;101094.03;5066372;28;20094;-64
2023/09/11 05:15:33;;;;;;;19.40;11.27;;;;;;;20.81;86.69;101109.03;5065946;28;20048;-64
2023/09/11 05:17:59;;;;;;;15.57;11.23;;;;;;;20.94;86.00;101112.19;5072868;28;20028;-64
2023/09/11 05:20:24;;;;;;;16.70;11.30;;;;;;;20.86;85.58;101104.00;5072907;28;21664;-64
2023/09/11 05:22:49;;;;;;;20.00;11.60;;;;;;;20.87;85.05;101108.41;5052087;28;20816;-64
2023/09/11 05:25:15;;;;;;;14.10;10.38;;;;;;;20.90;85.21;101118.91;5073408;28;20107;-64
2023/09/11 05:27:41;;;;;;;16.67;11.18;;;;;;;20.80;85.28;101119.00;5068944;28;20048;-64
2023/09/11 05:30:07;;;;;;;23.67;11.65;;;;;;;20.79;85.47;101114.59;5081029;28;20036;-64
2023/09/11 05:32:32;;;;;;;19.55;10.73;;;;;;;20.83;85.08;101109.72;5074104;28;20495;-63
2023/09/11 05:34:58;;;;;;;17.10;11.15;;;;;;;20.85;84.75;101116.69;5068039;28;20039;-64
2023/09/11 05:37:26;;;;;;;18.38;10.95;;;;;;;20.83;84.52;101124.09;5057328;28;20052;-64
2023/09/11 05:39:51;;;;;;;16.83;11.10;;;;;;;20.78;85.67;101131.81;5073336;28;20479;-64
2023/09/11 05:42:17;;;;;;;19.20;10.57;;;;;;;20.77;84.52;101122.03;5077136;28;20026;-64
2023/09/11 05:44:43;;;;;;;17.65;10.30;;;;;;;20.79;84.69;101121.84;5074825;28;20036;-64
2023/09/11 05:47:09;;;;;;;16.33;10.13;;;;;;;20.78;84.33;101115.59;5073660;28;20024;-64
2023/09/11 05:49:34;;;;;;;20.67;11.00;;;;;;;20.81;85.43;101131.50;5055864;28;20536;-64
2023/09/11 05:52:00;;;;;;;23.63;10.38;;;;;;;20.84;85.09;101130.34;5080049;28;20040;-64
2023/09/11 05:54:25;;;;;;;21.20;11.07;;;;;;;20.82;84.42;101125.13;5074608;28;20025;-63
2023/09/11 05:56:50;;;;;;;19.17;10.52;;;;;;;20.86;84.59;101134.59;5077059;28;20414;-64
2023/09/11 05:59:18;;;;;;;15.35;10.10;;;;;;;20.87;84.89;101135.44;5058647;28;20035;-64
2023/09/11 06:01:46;;;;;;;18.85;11.05;;;;;;;20.86;84.10;101140.00;5068437;28;20032;-63
2023/09/11 06:04:12;;;;;;;18.08;10.82;;;;;;;20.94;84.60;101138.34;5064036;28;20056;-63
2023/09/11 06:06:38;;;;;;;18.48;10.25;;;;;;;20.97;83.75;101144.31;5057615;28;20064;-63
2023/09/11 06:09:08;;;;;;;15.60;10.38;;;;;;;20.94;84.84;101150.06;5064592;28;20032;-63
2023/09/11 06:11:34;;;;;;;18.02;10.13;;;;;;;20.97;84.14;101144.31;5064710;28;20467;-63
2023/09/11 06:13:59;;;;;;;18.02;10.18;;;;;;;21.00;84.05;101144.00;5063932;28;20058;-63
2023/09/11 06:16:25;;;;;;;15.25;9.93;;;;;;;20.96;83.45;101136.34;5074463;28;20032;-63
2023/09/11 06:18:50;;;;;;;17.20;10.68;;;;;;;20.99;83.75;101149.56;5073116;28;20032;-63
2023/09/11 06:21:16;;;;;;;17.55;10.70;;;;;;;20.95;84.92;101151.75;5072349;28;20028;-66
2023/09/11 06:23:41;;;;;;;15.40;10.20;;;;;;;21.00;83.90;101149.41;5073046;28;20016;-65
2023/09/11 06:26:07;;;;;;;14.43;10.20;;;;;;;21.00;84.38;101149.41;5090201;28;20081;-66
2023/09/11 06:28:32;;;;;;;17.85;10.60;;;;;;;21.02;83.85;101150.09;5065105;28;20112;-65
2023/09/11 06:30:59;;;;;;;16.90;10.32;;;;;;;21.03;83.99;101146.41;5062291;28;20071;-65
2023/09/11 06:33:27;;;;;;;15.60;10.50;;;;;;;21.04;84.27;101155.34;5091367;28;20077;-65
2023/09/11 06:35:56;;;;;;;20.00;10.65;;;;;;;21.04;84.35;101158.06;5076296;28;20021;-65
2023/09/11 06:38:21;;;;;;;19.77;10.90;;;;;;;21.07;83.97;101155.88;5057531;28;20020;-65
2023/09/11 06:40:47;;;;;;;14.90;10.10;;;;;;;21.04;85.29;101152.66;5060166;28;20047;-65
2023/09/11 06:43:13;;;;;;;18.75;10.90;;;;;;;21.06;84.59;101159.59;5073563;28;20028;-65
2023/09/11 06:45:38;;;;;;;21.52;11.63;;;;;;;21.10;83.62;101157.44;5069039;28;20177;-65
2023/09/11 06:48:05;;;;;;;18.00;10.25;;;;;;;21.10;83.96;101146.59;5064931;28;20073;-65
2023/09/11 06:50:33;;;;;;;18.30;10.60;;;;;;;21.14;84.03;101158.81;5071785;28;20013;-65
2023/09/11 06:52:58;;;;;;;17.70;11.25;;;;;;;21.19;83.16;101155.63;5054451;28;20028;-65
2023/09/11 06:55:24;;;;;;;13.57;10.90;;;;;;;21.21;83.38;101161.75;5076970;28;20022;-65
2023/09/11 06:57:57;;;;;;;14.00;10.98;;;;;;;21.18;83.44;101156.63;5070862;28;20016;-65
2023/09/11 07:00:23;;;;;;;15.02;11.18;;;;;;;21.22;84.14;101158.03;5075161;28;20149;-65
2023/09/11 07:02:49;;;;;;;15.77;10.65;;;;;;;21.27;83.88;101161.94;5087514;28;20028;-65
2023/09/11 07:05:18;;;;;;;15.23;10.93;;;;;;;21.33;84.19;101155.91;5059323;28;20078;-65
2023/09/11 07:07:44;;;;;;;12.27;10.68;;;;;;;21.37;83.17;101147.50;5082178;28;20115;-65
2023/09/11 07:10:11;;;;;;;16.02;10.90;;;;;;;21.40;83.07;101147.16;5072616;28;20107;-65
2023/09/11 07:12:39;;;;;;;18.77;11.15;;;;;;;21.44;84.35;101135.88;5083390;28;20364;-65
2023/09/11 07:15:08;;;;;;;17.83;11.60;;;;;;;21.62;82.76;101143.91;5055300;28;20544;-65
2023/09/11 07:17:33;;;;;;;15.45;11.63;;;;;;;21.67;82.63;101143.41;5062500;28;20051;-65
2023/09/11 07:19:59;;;;;;;18.23;11.70;;;;;;;21.66;82.84;101129.03;5063478;28;20068;-65
2023/09/11 07:22:26;;;;;;;18.45;11.68;;;;;;;21.83;83.09;101139.97;5048825;28;20119;-66
2023/09/11 07:24:54;;;;;;;21.85;11.68;;;;;;;21.93;82.90;101144.22;5065335;28;20436;-65
2023/09/11 07:27:20;;;;;;;22.65;11.43;;;;;;;22.04;81.84;101140.34;5067282;28;20055;-65
2023/09/11 07:29:45;;;;;;;19.92;12.55;;;;;;;22.15;81.87;101145.47;5052703;28;20111;-65
2023/09/11 07:32:10;;;;;;;19.45;12.77;;;;;;;;;;5069975;28;20519;-65
2023/09/11 07:34:36;;;;;;;17.83;12.05;;;;;;;22.27;81.40;101146.06;5070735;28;20103;-65
2023/09/11 07:37:03;;;;;;;19.10;14.02;;;;;;;22.39;80.07;101149.28;5069259;28;20044;-65
2023/09/11 07:39:28;;;;;;;17.05;13.18;;;;;;;22.38;80.67;101151.16;5068959;28;20040;-65
2023/09/11 07:41:56;;;;;;;19.15;12.45;;;;;;;22.33;81.73;101142.66;5066643;28;20021;-65
2023/09/11 07:44:22;;;;;;;24.30;14.27;;;;;;;22.42;80.38;101162.50;5046830;28;20024;-65
2023/09/11 07:46:48;;;;;;;20.75;13.27;;;;;;;22.47;79.98;101160.13;5065032;28;20074;-65
2023/09/11 07:49:14;;;;;;;19.50;14.15;;;;;;;22.55;80.43;101153.88;5062690;28;20028;-65
2023/09/11 07:51:41;;;;;;;18.33;13.52;;;;;;;22.62;80.09;101158.47;5070087;28;20090;-65
2023/09/11 07:54:07;;;;;;;19.13;13.85;;;;;;;22.66;80.04;101159.81;5086659;28;20032;-65
2023/09/11 07:56:33;;;;;;;19.58;15.20;;;;;;;22.69;79.37;101172.19;5065759;28;20050;-65
2023/09/11 07:59:00;;;;;;;20.70;15.05;;;;;;;22.79;79.42;101174.75;5059651;28;20032;-65
2023/09/11 08:01:26;;;;;;;21.30;15.13;;;;;;;22.86;79.39;101173.91;5070508;28;20025;-66
2023/09/11 08:03:51;;;;;;;21.92;15.90;;;;;;;22.91;79.19;101178.81;5069300;28;20413;-65
2023/09/11 08:06:19;;;;;;;23.30;15.98;;;;;;;22.98;79.95;101179.03;5070489;28;20077;-65
2023/09/11 08:08:44;;;;;;;24.50;16.70;;;;;;;23.08;79.22;101176.97;5086416;28;20032;-65
2023/09/11 08:11:15;;;;;;;26.38;18.00;;;;;;;23.23;78.72;101188.00;5070194;28;20036;-65
2023/09/11 08:13:42;;;;;;;21.88;18.30;;;;;;;23.24;78.25;101182.41;5069414;28;20410;-65
2023/09/11 08:16:08;;;;;;;23.88;16.73;;;;;;;23.33;79.79;101183.25;5070130;28;20115;-65
2023/09/11 08:18:34;;;;;;;28.10;15.73;;;;;;;23.60;79.14;101192.84;5091021;28;20455;-65
2023/09/11 08:21:00;;;;;;;21.63;17.15;;;;;;;23.74;77.03;101194.88;5064766;28;20062;-65
2023/09/11 08:23:25;;;;;;;25.98;17.58;;;;;;;23.85;75.35;101193.66;5067012;28;20036;-65
2023/09/11 08:25:56;;;;;;;24.52;18.58;;;;;;;23.98;75.03;101190.38;5070137;28;20055;-65
2023/09/11 08:28:22;;;;;;;19.20;16.52;;;;;;;24.06;76.15;101186.78;5067742;28;20026;-65
2023/09/11 08:30:47;;;;;;;20.63;17.48;;;;;;;24.07;75.68;101186.59;5066690;28;20086;-65
2023/09/11 08:33:12;;;;;;;21.58;17.33;;;;;;;24.42;74.10;101181.69;5065816;28;20123;-65
2023/09/11 08:35:40;;;;;;;29.85;17.55;;;;;;;24.63;73.01;101190.06;5069954;28;20085;-65
2023/09/11 08:38:06;;;;;;;20.92;17.35;;;;;;;24.60;72.54;101179.53;5084832;28;20074;-65
2023/09/11 08:40:31;;;;;;;27.05;18.25;;;;;;;24.76;72.08;101178.56;5070860;28;20020;-65
2023/09/11 08:42:59;;;;;;;18.13;15.43;;;;;;;25.03;70.85;101184.47;5069721;28;20386;-65
2023/09/11 08:45:26;;;;;;;20.48;16.90;;;;;;;24.95;71.09;101185.41;5052425;28;20021;-65
2023/09/11 08:47:56;;;;;;;19.75;16.30;;;;;;;25.29;70.25;101203.16;5052171;28;20104;-65
2023/09/11 08:50:27;;;;;;;25.15;16.67;;;;;;;25.33;70.18;101190.88;5069367;28;20375;-65
2023/09/11 08:52:54;;;;;;;23.95;15.43;;;;;;;25.45;68.95;101191.28;5069858;28;20036;-65
2023/09/11 08:55:21;;;;;;;22.10;16.40;;;;;;;25.57;68.14;101187.88;5070030;28;20119;-65
2023/09/11 08:57:46;;;;;;;19.45;16.08;;;;;;;25.64;68.05;101182.53;5051761;28;20043;-65
2023/09/11 09:00:17;;;;;;;20.20;15.25;;;;;;;25.74;69.67;101179.53;5070019;28;20531;-65
2023/09/11 09:02:43;;;;;;;23.48;15.90;;;;;;;25.79;70.03;101191.53;5070432;28;20047;-65
2023/09/11 09:05:09;;;;;;;20.33;15.98;;;;;;;25.91;68.88;101199.28;5070619;28;20044;-65
2023/09/11 09:07:34;;;;;;;18.60;15.68;;;;;;;26.15;66.55;101199.00;5070598;28;20107;-65
2023/09/11 09:10:02;;;;;;;21.88;15.73;;;;;;;26.18;66.97;101187.72;5070910;28;20417;-65
2023/09/11 09:12:28;;;;;;;18.60;15.80;;;;;;;26.37;65.92;101180.78;5072479;28;20051;-65
2023/09/11 09:14:54;;;;;;;24.02;16.70;;;;;;;26.41;66.21;101187.53;5056413;28;20064;-65
2023/09/11 09:17:19;;;;;;;17.33;14.45;;;;;;;26.45;66.04;101185.28;5074866;28;20016;-65
2023/09/11 09:19:44;;;;;;;19.60;14.82;;;;;;;26.61;65.29;101192.41;5089689;28;20432;-65
2023/09/11 09:22:12;;;;;;;22.15;15.25;;;;;;;26.56;64.71;101194.84;5075405;28;20029;-64
2023/09/11 09:24:47;;;;;;;19.65;13.27;;;;;;;26.52;64.92;101190.84;5073145;28;20493;-64
2023/09/11 09:27:12;;;;;;;21.30;14.00;;;;;;;26.39;64.41;101186.06;5068159;28;20057;-64
2023/09/11 09:29:39;;;;;;;17.40;12.50;;;;;;;26.37;67.07;101194.41;5094760;28;20055;-64
2023/09/11 09:32:06;;;;;;;18.73;13.23;;;;;;;26.41;64.50;101186.69;5076483;28;20445;-64
2023/09/11 09:34:33;;;;;;;18.60;13.98;;;;;;;26.34;64.63;101192.06;5094341;28;20102;-65
2023/09/11 09:36:58;;;;;;;20.67;12.68;;;;;;;26.42;65.97;101191.13;5092696;28;20383;-64
2023/09/11 09:39:28;;;;;;;21.38;13.40;;;;;;;26.39;66.72;101191.50;5085577;28;20035;-60
2023/09/11 09:41:56;;;;;;;19.05;11.85;;;;;;;26.36;65.70;101189.16;5055614;28;20020;-61
2023/09/11 09:44:35;;;;;;;18.80;11.00;;;;;;;26.38;66.81;101189.81;5056184;28;20099;-61
2023/09/11 09:47:19;;;;;;;25.33;11.05;;;;;;;26.46;65.84;101186.97;5055958;28;20027;-59
2023/09/11 09:49:56;;;;;;;14.00;10.40;;;;;;;26.44;66.25;101189.91;5082373;28;20063;-58
2023/09/11 09:52:25;;;;;;;19.95;11.00;;;;;;;26.32;66.72;101183.22;5073471;28;20059;-59
2023/09/11 09:54:52;;;;;;;;;;;;;;;26.56;66.00;101186.66;5073787;28;20032;-60
2023/09/11 09:57:19;;;;;;;13.05;8.88;;;;;;;26.54;65.83;101189.59;5055910;28;20356;-60
2023/09/11 09:59:51;;;;;;;10.93;8.40;;;;;;;26.50;62.70;101193.75;5089127;28;20587;-60
2023/09/11 10:02:28;;;;;;;14.27;9.70;;;;;;;26.45;61.57;101185.28;5055945;28;20024;-60
2023/09/11 10:04:55;;;;;;;16.95;10.40;;;;;;;26.51;62.64;101187.28;5073388;28;20021;-60
2023/09/11 10:07:44;;;;;;;13.35;8.73;;;;;;;26.62;65.56;101186.75;5073904;28;20113;-59
2023/09/11 10:10:23;;;;;;;15.05;9.77;;;;;;;26.63;63.76;101193.06;5073833;28;20060;-60
2023/09/11 10:12:53;;;;;;;16.83;10.48;;;;;;;26.72;63.92;101190.00;5055909;28;20463;-59
2023/09/11 10:15:21;;;;;;;16.92;11.93;;;;;;;26.68;63.22;101190.59;5055600;28;20029;-60
2023/09/11 10:17:47;;;;;;;16.98;10.55;;;;;;;26.72;63.79;101200.06;5073710;28;20027;-64
2023/09/11 10:20:12;;;;;;;15.48;9.07;;;;;;;26.67;63.63;101189.72;5073617;28;20017;-66
2023/09/11 10:22:38;;;;;;;11.90;7.93;;;;;;;26.88;62.59;101175.22;5074175;28;20438;-67
2023/09/11 10:25:03;;;;;;;13.35;8.75;;;;;;;26.94;62.07;101184.53;5066791;28;20027;-68
2023/09/11 10:27:32;;;;;;;15.95;9.30;;;;;;;27.07;61.23;101181.09;5074120;28;20017;-66
2023/09/11 10:30:09;;;;;;;16.15;9.38;;;;;;;27.02;62.59;101178.09;5069610;28;20034;-64
2023/09/11 10:32:45;;;;;;;13.55;8.40;;;;;;;27.02;61.73;101186.28;5055065;28;20086;-65
2023/09/11 10:35:11;;;;;;;14.45;8.88;;;;;;;26.99;60.92;101171.13;5054586;28;20115;-65
2023/09/11 10:37:40;;;;;;;13.02;8.38;;;;;;;27.19;60.24;101176.81;5073640;28;20112;-65
2023/09/11 10:40:08;;;;;;;12.20;7.65;;;;;;;27.17;60.07;101167.94;5088156;28;20086;-65
2023/09/11 10:42:33;;;;;;;14.90;8.68;;;;;;;27.27;59.81;101176.66;5054983;28;20024;-66
2023/09/11 10:44:59;;;;;;;13.32;8.40;;;;;;;27.31;59.36;101183.41;5072770;28;20379;-66
2023/09/11 10:47:27;;;;;;;11.45;8.45;;;;;;;27.34;60.28;101176.69;5072987;28;20032;-64
2023/09/11 10:49:58;;;;;;;12.40;8.13;;;;;;;27.48;61.77;101172.19;5055054;28;20131;-65
2023/09/11 10:52:25;;;;;;;14.55;8.73;;;;;;;27.56;57.67;101170.13;5072638;28;20043;-67
2023/09/11 10:54:51;;;;;;;12.77;8.00;;;;;;;27.57;59.10;101170.97;5054678;28;20054;-64
2023/09/11 10:57:19;;;;;;;17.83;8.38;;;;;;;27.62;58.34;101177.53;5072960;28;20020;-64
2023/09/11 10:59:44;;;;;;;11.32;8.13;;;;;;;27.68;57.25;101172.28;5058367;28;20038;-67
2023/09/11 11:02:09;;;;;;;14.32;7.93;;;;;;;27.60;56.67;101167.84;5059068;28;20020;-67
2023/09/11 11:04:37;;;;;;;12.65;7.65;;;;;;;27.67;56.16;101168.72;5072233;28;20028;-65
2023/09/11 11:07:03;;;;;;;10.98;7.47;;;;;;;27.64;56.10;101166.38;5103336;28;20508;-66
2023/09/11 11:09:33;;;;;;;15.23;8.68;;;;;;;27.55;57.06;101167.59;5080333;28;20138;-66
2023/09/11 11:12:02;;;;;;;15.30;7.47;;;;;;;27.69;57.00;101169.34;5055691;28;20391;-65